Time;durP1;ratioP1;P1;durP2;ratioP2;P2;SDS_P1;SDS_P2;PMS_P1;PMS_P2;Temp;Humidity;BMP_temperature;BMP_pressure;BME280_temperature;BME280_humidity;BME280_pressure;Samples;Min_cycle;Max_cycle;Signal;HPM_P1;HPM_P2
2022/09/19 00:01:18;;;;;;;0.68;0.45;;;23.50;51.20;;;;;;5052807;28;20648;-45
2022/09/19 00:03:50;;;;;;;0.63;0.40;;;23.50;51.20;;;;;;5052540;28;20040;-45
2022/09/19 00:06:17;;;;;;;0.63;0.35;;;23.50;51.10;;;;;;5052733;28;20074;-46
2022/09/19 00:08:44;;;;;;;0.65;0.43;;;23.50;51.10;;;;;;5052470;28;20410;-45
2022/09/19 00:11:12;;;;;;;0.52;0.40;;;23.50;51.20;;;;;;5034746;28;20398;-45
2022/09/19 00:13:47;;;;;;;0.60;0.43;;;23.50;51.10;;;;;;5029765;28;20073;-53
2022/09/19 00:16:18;;;;;;;0.88;0.40;;;23.50;51.10;;;;;;5033361;28;20036;-45
2022/09/19 00:18:45;;;;;;;0.43;0.30;;;23.40;51.10;;;;;;5032475;28;20025;-45
2022/09/19 00:21:17;;;;;;;0.20;0.20;;;23.40;51.10;;;;;;5031876;28;20050;-47
2022/09/19 00:26:26;;;;;;;1.77;0.47;;;23.50;51.10;;;;;;5033006;28;20036;-46
2022/09/19 00:28:52;;;;;;;0.50;0.32;;;23.50;51.10;;;;;;5025235;28;20456;-47
2022/09/19 00:31:19;;;;;;;0.22;0.20;;;23.50;51.10;;;;;;5017999;28;20057;-46
2022/09/19 00:33:47;;;;;;;0.55;0.30;;;23.40;51.00;;;;;;5031350;28;20477;-46
2022/09/19 00:36:15;;;;;;;0.50;0.40;;;23.40;51.00;;;;;;5032662;28;20038;-46
2022/09/19 00:38:41;;;;;;;0.30;0.30;;;23.40;51.00;;;;;;5032038;28;20100;-53
2022/09/19 00:41:08;;;;;;;0.65;0.30;;;23.40;51.00;;;;;;5032038;28;20382;-46
2022/09/19 00:44:21;;;;;;;0.28;0.28;;;23.40;51.00;;;;;;5032507;28;20033;-46
2022/09/19 00:46:50;;;;;;;0.43;0.30;;;23.40;50.90;;;;;;5027998;28;20049;-46
2022/09/19 00:49:19;;;;;;;0.47;0.47;;;23.40;50.90;;;;;;5032434;28;20041;-46
2022/09/19 00:51:55;;;;;;;0.20;0.20;;;23.40;50.90;;;;;;5030565;28;20026;-45
2022/09/19 00:54:34;;;;;;;0.28;0.28;;;23.40;50.90;;;;;;5032230;28;20465;-47
2022/09/19 00:57:03;;;;;;;0.28;0.20;;;23.40;50.90;;;;;;5031941;28;20621;-46
2022/09/19 00:59:34;;;;;;;0.30;0.30;;;23.40;50.90;;;;;;5022711;28;20028;-46
2022/09/19 01:02:04;;;;;;;0.52;0.20;;;23.40;50.90;;;;;;5031561;28;20785;-46
2022/09/19 01:04:35;;;;;;;0.70;0.38;;;23.40;50.90;;;;;;5032390;28;20083;-46
2022/09/19 01:07:16;;;;;;;0.30;0.30;;;23.40;50.80;;;;;;5031511;28;20033;-46
2022/09/19 01:09:53;;;;;;;0.47;0.38;;;23.40;50.80;;;;;;5031447;28;20427;-54
2022/09/19 01:12:51;;;;;;;0.32;0.20;;;23.40;50.80;;;;;;5032306;28;20030;-46
2022/09/19 01:15:30;;;;;;;1.55;0.30;;;23.40;50.80;;;;;;5030989;28;20029;-50
2022/09/19 01:17:58;;;;;;;0.50;0.50;;;23.40;50.70;;;;;;5011611;28;20121;-47
2022/09/19 01:20:45;;;;;;;0.20;0.20;;;23.40;50.80;;;;;;5012148;28;20036;-46
2022/09/19 01:23:32;;;;;;;0.40;0.30;;;23.40;50.80;;;;;;5012730;28;20033;-46
2022/09/19 01:26:19;;;;;;;0.45;0.30;;;23.40;50.80;;;;;;5011661;28;20026;-45
2022/09/19 01:28:52;;;;;;;0.35;0.35;;;23.40;50.70;;;;;;5011803;28;20029;-53
2022/09/19 01:31:27;;;;;;;0.50;0.30;;;23.40;50.80;;;;;;5012464;28;20057;-51
2022/09/19 01:34:14;;;;;;;0.50;0.20;;;23.40;50.70;;;;;;5028261;28;20037;-46
2022/09/19 01:36:43;;;;;;;0.20;0.20;;;23.40;50.70;;;;;;5031445;28;20052;-46
2022/09/19 01:39:11;;;;;;;0.47;0.40;;;23.40;50.70;;;;;;5030931;28;20025;-45
2022/09/19 01:41:37;;;;;;;0.30;0.25;;;23.40;50.70;;;;;;5031634;28;20076;-46
2022/09/19 01:44:08;;;;;;;0.30;0.30;;;23.40;50.70;;;;;;5030511;28;20041;-47
2022/09/19 01:46:36;;;;;;;0.60;0.30;;;23.30;50.60;;;;;;5031546;28;20076;-46
2022/09/19 01:49:17;;;;;;;0.60;0.30;;;23.30;50.60;;;;;;5029452;28;20530;-46
2022/09/19 01:51:53;;;;;;;1.20;0.50;;;23.30;50.60;;;;;;5031414;28;20029;-53
2022/09/19 01:54:21;;;;;;;0.82;0.20;;;23.40;50.60;;;;;;5031903;28;20038;-46
2022/09/19 01:57:13;;;;;;;0.98;0.20;;;23.40;50.70;;;;;;5030795;28;20479;-53
2022/09/19 02:00:05;;;;;;;0.20;0.20;;;23.30;50.60;;;;;;5031915;28;20026;-46
2022/09/19 02:02:36;;;;;;;;;;;23.40;50.70;;;;;;5027914;28;20037;-46
2022/09/19 02:05:10;;;;;;;0.40;0.30;;;23.30;50.60;;;;;;5029321;28;19905;-46
2022/09/19 02:07:47;;;;;;;0.63;0.63;;;23.40;50.60;;;;;;5031629;28;20033;-46
2022/09/19 02:10:29;;;;;;;0.25;0.25;;;23.30;50.60;;;;;;5041173;28;20045;-46
2022/09/19 02:12:56;;;;;;;;;;;23.30;50.50;;;;;;5051006;28;20131;-46
2022/09/19 02:15:26;;;;;;;1.15;0.32;;;23.30;50.60;;;;;;5051621;28;19905;-46
2022/09/19 02:17:56;;;;;;;1.08;0.45;;;23.30;50.70;;;;;;5048445;28;20039;-45
2022/09/19 02:20:29;;;;;;;0.47;0.20;;;23.30;50.60;;;;;;5047973;28;20029;-46
2022/09/19 02:23:20;;;;;;;0.95;0.40;;;23.30;50.70;;;;;;5050604;28;20044;-46
2022/09/19 02:25:47;;;;;;;0.43;0.20;;;23.30;50.60;;;;;;5050879;28;20120;-53
2022/09/19 02:28:18;;;;;;;0.20;0.20;;;23.30;50.60;;;;;;5051835;28;20029;-46
2022/09/19 02:30:44;;;;;;;0.30;0.20;;;23.30;50.60;;;;;;5037493;28;20036;-46
2022/09/19 02:33:15;;;;;;;1.67;0.40;;;23.30;50.50;;;;;;5054673;28;20040;-46
2022/09/19 02:36:00;;;;;;;0.65;0.30;;;23.30;50.50;;;;;;5054559;28;20101;-47
2022/09/19 02:38:36;;;;;;;0.57;0.35;;;23.30;50.50;;;;;;5043640;28;20111;-45
2022/09/19 02:41:36;;;;;;;0.35;0.25;;;23.30;50.60;;;;;;5052793;28;20780;-46
2022/09/19 02:44:19;;;;;;;0.20;0.20;;;23.30;50.60;;;;;;5053402;28;20060;-46
2022/09/19 02:47:17;;;;;;;0.63;0.20;;;23.30;50.60;;;;;;5054253;28;20409;-53
2022/09/19 02:50:15;;;;;;;0.22;0.20;;;23.30;50.50;;;;;;5043029;28;20033;-47
2022/09/19 02:52:43;;;;;;;0.15;0.15;;;23.30;50.50;;;;;;5049759;28;20045;-46
2022/09/19 02:55:16;;;;;;;0.85;0.40;;;23.30;50.50;;;;;;5053901;28;20102;-46
2022/09/19 02:57:46;;;;;;;0.38;0.30;;;23.30;50.50;;;;;;5052871;28;20083;-46
2022/09/19 03:00:13;;;;;;;0.40;0.30;;;23.30;50.60;;;;;;5053849;28;20037;-48
2022/09/19 03:02:59;;;;;;;0.70;0.30;;;23.30;50.50;;;;;;5054665;28;20037;-46
2022/09/19 03:05:27;;;;;;;0.20;0.20;;;23.30;50.40;;;;;;5054618;28;20104;-46
2022/09/19 03:08:00;;;;;;;0.20;0.20;;;23.30;50.50;;;;;;5052502;28;20112;-53
2022/09/19 03:10:33;;;;;;;0.38;0.25;;;23.30;50.50;;;;;;5037308;28;20549;-46
2022/09/19 03:13:02;;;;;;;0.20;0.20;;;23.30;50.50;;;;;;5033361;28;20033;-46
2022/09/19 03:15:51;;;;;;;0.20;0.20;;;23.30;50.40;;;;;;5034555;28;20486;-49
2022/09/19 03:18:19;;;;;;;0.20;0.20;;;23.30;50.50;;;;;;5039442;28;20025;-45
2022/09/19 03:20:51;;;;;;;0.22;0.20;;;23.30;50.60;;;;;;5053637;28;20056;-46
2022/09/19 03:23:27;;;;;;;0.45;0.45;;;23.30;50.60;;;;;;5053842;28;20037;-46
2022/09/19 03:25:53;;;;;;;1.55;0.63;;;23.30;50.50;;;;;;5049594;28;20075;-46
2022/09/19 03:28:21;;;;;;;0.20;0.20;;;23.20;50.40;;;;;;5053916;28;20033;-46
2022/09/19 03:30:47;;;;;;;0.68;0.30;;;23.30;50.40;;;;;;5053590;28;20028;-46
2022/09/19 03:33:15;;;;;;;0.98;0.40;;;23.30;50.50;;;;;;5053317;28;20041;-46
2022/09/19 03:35:42;;;;;;;0.38;0.25;;;23.30;50.40;;;;;;5053869;28;20025;-46
2022/09/19 03:38:09;;;;;;;0.70;0.20;;;23.30;50.40;;;;;;5053147;28;20482;-46
2022/09/19 03:40:34;;;;;;;1.88;0.22;;;23.30;50.30;;;;;;5034767;28;20025;-46
2022/09/19 03:43:00;;;;;;;1.15;0.32;;;23.30;50.40;;;;;;5044847;28;20094;-46
2022/09/19 03:45:26;;;;;;;0.52;0.20;;;23.20;50.30;;;;;;5053815;28;20052;-46
2022/09/19 03:47:52;;;;;;;0.55;0.30;;;23.20;50.30;;;;;;5052736;28;20032;-55
2022/09/19 03:50:17;;;;;;;1.42;0.25;;;23.20;50.40;;;;;;5053503;28;20445;-48
2022/09/19 03:52:47;;;;;;;2.20;0.40;;;23.20;51.00;;;;;;5052191;28;20108;-49
2022/09/19 03:55:13;;;;;;;0.20;0.20;;;23.20;50.30;;;;;;5050308;28;20611;-48
2022/09/19 03:57:39;;;;;;;0.43;0.13;;;23.30;50.40;;;;;;5052007;28;20020;-47
2022/09/19 04:00:06;;;;;;;0.43;0.30;;;23.20;50.40;;;;;;5051007;28;20032;-45
2022/09/19 04:02:32;;;;;;;0.38;0.15;;;23.20;50.40;;;;;;5051505;28;20040;-47
2022/09/19 04:04:58;;;;;;;0.47;0.20;;;23.20;50.40;;;;;;5051629;28;20025;-47
2022/09/19 04:07:27;;;;;;;0.43;0.30;;;23.30;50.50;;;;;;5053068;28;20032;-49
2022/09/19 04:09:54;;;;;;;0.45;0.20;;;23.20;50.40;;;;;;5050108;28;20064;-53
2022/09/19 04:12:20;;;;;;;0.80;0.30;;;23.30;50.60;;;;;;5050028;28;20037;-46
2022/09/19 04:14:46;;;;;;;1.40;0.65;;;23.20;50.50;;;;;;5053139;28;20496;-48
2022/09/19 04:17:13;;;;;;;1.35;0.30;;;23.20;50.40;;;;;;5052537;28;20053;-47
2022/09/19 04:19:39;;;;;;;0.35;0.20;;;23.20;50.50;;;;;;5053010;28;20033;-45
2022/09/19 04:22:05;;;;;;;0.65;0.30;;;23.20;50.40;;;;;;5052343;28;20029;-48
2022/09/19 04:24:30;;;;;;;0.45;0.22;;;23.20;50.50;;;;;;5052850;28;20108;-46
2022/09/19 04:27:06;;;;;;;0.35;0.30;;;23.20;50.50;;;;;;5052311;28;20029;-47
2022/09/19 04:29:32;;;;;;;0.20;0.20;;;23.20;50.50;;;;;;5048722;28;20036;-47
2022/09/19 04:32:01;;;;;;;0.38;0.30;;;23.20;50.60;;;;;;5049716;28;20029;-50
2022/09/19 04:34:28;;;;;;;0.75;0.30;;;23.20;50.50;;;;;;5050704;28;20014;-46
2022/09/19 04:36:54;;;;;;;1.23;0.40;;;23.20;49.00;;;;;;5050332;28;20393;-54
2022/09/19 04:39:19;;;;;;;1.75;0.50;;;23.10;44.60;;;;;;5045236;28;20052;-45
2022/09/19 04:41:45;;;;;;;2.38;0.60;;;23.10;43.30;;;;;;5049674;28;20053;-49
2022/09/19 04:44:11;;;;;;;1.27;0.50;;;23.00;42.80;;;;;;5049991;28;20021;-48
2022/09/19 04:46:41;;;;;;;4.43;0.60;;;22.90;42.40;;;;;;5048156;28;20029;-46
2022/09/19 04:49:07;;;;;;;1.48;0.50;;;22.90;43.10;;;;;;5050256;28;20025;-46
2022/09/19 04:51:33;;;;;;;2.70;0.73;;;22.90;42.40;;;;;;5051167;28;20032;-46
2022/09/19 04:54:01;;;;;;;2.40;0.50;;;22.90;42.60;;;;;;5050213;28;20036;-47
2022/09/19 04:56:27;;;;;;;3.80;0.60;;;22.90;42.60;;;;;;5051047;28;20025;-45
2022/09/19 04:58:53;;;;;;;1.67;0.50;;;22.90;42.80;;;;;;5050585;28;20025;-53
2022/09/19 05:01:18;;;;;;;2.58;0.43;;;22.90;42.30;;;;;;5043464;28;20034;-49
2022/09/19 05:03:44;;;;;;;2.45;1.10;;;22.90;42.40;;;;;;5051075;28;20028;-48
2022/09/19 05:06:11;;;;;;;3.22;0.60;;;22.90;42.50;;;;;;5049827;28;20037;-46
2022/09/19 05:08:38;;;;;;;1.50;0.50;;;23.00;43.50;;;;;;5047425;28;20450;-49
2022/09/19 05:11:05;;;;;;;2.03;0.50;;;23.00;44.20;;;;;;5049811;28;20059;-45
2022/09/19 05:13:33;;;;;;;3.15;0.60;;;23.10;45.00;;;;;;5051872;28;20056;-48
2022/09/19 05:16:00;;;;;;;2.90;0.60;;;23.10;45.90;;;;;;5051220;28;20025;-46
2022/09/19 05:18:28;;;;;;;1.88;0.77;;;23.10;45.60;;;;;;5048466;28;20047;-47
2022/09/19 05:20:55;;;;;;;3.05;0.60;;;23.10;46.00;;;;;;5051627;28;20029;-53
2022/09/19 05:23:24;;;;;;;1.17;0.40;;;23.10;46.40;;;;;;5052059;28;20040;-46
2022/09/19 05:25:53;;;;;;;2.10;0.63;;;23.10;46.60;;;;;;5051332;28;20490;-48
2022/09/19 05:28:23;;;;;;;1.30;0.57;;;23.10;46.70;;;;;;5051800;28;20041;-46
2022/09/19 05:30:54;;;;;;;2.70;0.98;;;23.10;47.00;;;;;;5053531;28;20029;-45
2022/09/19 05:33:26;;;;;;;1.52;0.50;;;23.10;47.10;;;;;;5045409;28;20037;-47
2022/09/19 05:35:52;;;;;;;2.72;0.50;;;23.10;47.30;;;;;;5045202;28;20035;-52
2022/09/19 05:38:18;;;;;;;2.75;0.82;;;23.10;47.80;;;;;;5049274;28;20055;-46
2022/09/19 05:40:43;;;;;;;4.20;0.55;;;23.10;48.20;;;;;;5051355;28;20060;-48
2022/09/19 05:43:09;;;;;;;1.02;0.60;;;23.10;48.50;;;;;;5048350;28;20061;-49
2022/09/19 05:45:35;;;;;;;2.45;0.50;;;23.20;48.30;;;;;;5051131;28;20029;-47
2022/09/19 05:48:06;;;;;;;2.60;0.63;;;23.10;48.50;;;;;;5044780;28;20107;-53
2022/09/19 05:50:34;;;;;;;7.78;1.20;;;23.20;49.20;;;;;;5051696;28;20470;-49
2022/09/19 05:55:44;;;;;;;5.95;1.10;;;23.20;49.40;;;;;;5051480;28;20032;-49
2022/09/19 05:58:10;;;;;;;4.65;1.25;;;23.20;49.50;;;;;;5050612;28;20013;-46
2022/09/19 06:00:37;;;;;;;3.80;0.70;;;23.20;49.60;;;;;;5050901;28;20036;-49
2022/09/19 06:03:04;;;;;;;6.15;1.60;;;23.20;49.90;;;;;;5047744;28;20140;-49
2022/09/19 06:05:37;;;;;;;2.75;0.90;;;23.20;50.00;;;;;;5048992;28;20522;-53
2022/09/19 06:08:04;;;;;;;7.03;1.05;;;23.20;50.10;;;;;;5053858;28;20450;-47
2022/09/19 06:10:34;;;;;;;4.00;1.58;;;23.20;50.10;;;;;;5054620;28;20049;-46
2022/09/19 06:13:00;;;;;;;2.35;0.55;;;23.20;50.20;;;;;;5053555;28;20041;-46
2022/09/19 06:15:25;;;;;;;2.20;0.95;;;23.20;50.20;;;;;;5036959;28;20109;-45
2022/09/19 06:17:58;;;;;;;2.17;0.75;;;23.20;50.20;;;;;;5052873;28;20486;-48
2022/09/19 06:20:24;;;;;;;4.85;0.80;;;23.20;50.30;;;;;;5054759;28;20029;-48
2022/09/19 06:23:02;;;;;;;2.35;0.93;;;23.20;50.30;;;;;;5052547;28;20025;-48
2022/09/19 06:25:31;;;;;;;1.75;0.50;;;23.20;50.40;;;;;;5049809;28;20036;-48
2022/09/19 06:27:59;;;;;;;1.02;0.60;;;23.20;50.40;;;;;;5053771;28;20029;-51
2022/09/19 06:30:26;;;;;;;2.45;0.50;;;23.20;50.50;;;;;;5052119;28;20412;-48
2022/09/19 06:32:52;;;;;;;1.23;0.55;;;23.20;50.50;;;;;;5052624;28;20044;-49
2022/09/19 06:35:22;;;;;;;1.60;0.60;;;23.20;50.60;;;;;;5051837;28;20045;-46
2022/09/19 06:37:48;;;;;;;2.45;0.55;;;23.20;50.60;;;;;;5054533;28;20052;-47
2022/09/19 06:40:17;;;;;;;2.08;0.60;;;23.20;50.70;;;;;;5052867;28;20399;-50
2022/09/19 06:42:43;;;;;;;3.50;0.70;;;23.20;50.70;;;;;;5054050;28;20028;-47
2022/09/19 06:45:09;;;;;;;3.33;0.80;;;23.20;50.70;;;;;;5053592;28;20025;-46
2022/09/19 06:47:35;;;;;;;2.25;0.52;;;23.20;50.70;;;;;;5054512;28;20025;-46
2022/09/19 06:50:01;;;;;;;2.63;0.63;;;23.20;50.70;;;;;;5053157;28;20027;-49
2022/09/19 06:52:27;;;;;;;2.20;0.73;;;23.20;50.80;;;;;;5053830;28;20539;-47
2022/09/19 06:54:54;;;;;;;5.20;0.93;;;23.20;50.80;;;;;;5054193;28;20029;-54
2022/09/19 06:57:19;;;;;;;4.35;0.75;;;23.20;50.80;;;;;;5051402;28;20060;-47
2022/09/19 06:59:45;;;;;;;2.53;0.70;;;23.20;50.80;;;;;;5055175;28;20067;-49
2022/09/19 07:02:11;;;;;;;3.83;0.80;;;23.20;50.80;;;;;;5042264;28;20103;-47
2022/09/19 07:04:38;;;;;;;3.25;0.65;;;23.30;50.90;;;;;;5051878;28;20029;-46
2022/09/19 07:07:05;;;;;;;3.67;0.70;;;23.30;50.70;;;;;;5037917;28;20069;-49
2022/09/19 07:09:31;;;;;;;5.75;0.90;;;23.30;50.10;;;;;;5052991;28;20036;-48
2022/09/19 07:11:56;;;;;;;3.92;1.10;;;23.30;49.80;;;;;;5053055;28;20037;-55
2022/09/19 07:14:23;;;;;;;1.75;0.60;;;23.30;49.70;;;;;;5052035;28;20394;-48
2022/09/19 07:16:48;;;;;;;1.92;0.60;;;23.20;50.30;;;;;;5054173;28;20021;-50
2022/09/19 07:19:14;;;;;;;2.17;0.60;;;23.30;49.50;;;;;;5055631;28;20090;-50
2022/09/19 07:21:40;;;;;;;4.35;1.13;;;23.30;49.60;;;;;;5056830;28;20079;-45
2022/09/19 07:24:06;;;;;;;2.05;0.65;;;23.30;49.10;;;;;;5052761;28;20033;-46
2022/09/19 07:26:32;;;;;;;5.28;0.88;;;23.30;49.00;;;;;;5051352;28;20024;-45
2022/09/19 07:28:58;;;;;;;6.18;1.20;;;23.40;49.80;;;;;;5052893;28;20021;-55
2022/09/19 07:31:24;;;;;;;3.90;1.13;;;23.30;48.90;;;;;;5048532;28;20033;-45
2022/09/19 07:33:49;;;;;;;4.82;1.00;;;23.30;48.70;;;;;;5052988;28;20099;-45
2022/09/19 07:36:15;;;;;;;3.42;1.10;;;23.30;48.70;;;;;;5052701;28;20063;-50
2022/09/19 07:38:41;;;;;;;2.92;1.05;;;23.30;48.80;;;;;;5053775;28;20017;-49
2022/09/19 07:41:06;;;;;;;5.20;1.20;;;23.30;48.60;;;;;;5034893;28;20052;-45
2022/09/19 07:43:32;;;;;;;4.97;1.00;;;23.30;49.50;;;;;;5053288;28;20028;-45
2022/09/19 07:45:57;;;;;;;4.38;1.10;;;23.30;48.90;;;;;;5052740;28;21370;-53
2022/09/19 07:48:23;;;;;;;2.97;1.30;;;23.30;48.80;;;;;;5052436;28;20105;-47
2022/09/19 07:50:49;;;;;;;2.67;0.80;;;23.30;49.10;;;;;;5053364;28;20044;-48
2022/09/19 07:53:17;;;;;;;3.53;1.20;;;23.30;49.20;;;;;;5052335;28;20060;-47
2022/09/19 07:55:42;;;;;;;3.17;0.77;;;23.30;48.70;;;;;;5053224;28;20429;-47
2022/09/19 07:58:10;;;;;;;2.67;0.82;;;23.30;48.90;;;;;;5051815;28;20017;-50
2022/09/19 08:00:38;;;;;;;5.93;0.82;;;23.20;48.70;;;;;;5053954;28;20493;-45
2022/09/19 08:03:06;;;;;;;3.72;1.08;;;23.20;49.10;;;;;;5052412;28;20029;-50
2022/09/19 08:05:34;;;;;;;3.50;0.75;;;23.20;48.80;;;;;;5052527;28;20096;-46
2022/09/19 08:08:00;;;;;;;3.03;1.00;;;23.20;48.90;;;;;;5051333;28;20120;-55
2022/09/19 08:10:26;;;;;;;3.75;0.82;;;23.20;48.70;;;;;;5046262;28;20085;-49
2022/09/19 08:12:52;;;;;;;4.05;0.80;;;23.20;48.80;;;;;;5032992;28;20080;-48
2022/09/19 08:15:19;;;;;;;2.58;0.80;;;23.20;48.50;;;;;;5045761;28;20017;-47
2022/09/19 08:18:01;;;;;;;2.97;0.88;;;23.20;48.80;;;;;;5036313;28;20057;-45
2022/09/19 08:20:29;;;;;;;2.13;0.90;;;23.20;48.50;;;;;;5046292;28;20532;-48
2022/09/19 08:22:56;;;;;;;2.45;1.10;;;23.20;48.70;;;;;;5032383;28;20021;-45
2022/09/19 08:25:23;;;;;;;5.47;0.95;;;23.20;48.30;;;;;;5037288;28;20022;-45
2022/09/19 08:27:49;;;;;;;3.08;1.38;;;23.20;48.40;;;;;;5032514;28;20034;-46
2022/09/19 08:30:15;;;;;;;2.85;0.80;;;23.20;48.60;;;;;;5036976;28;20033;-45
2022/09/19 08:32:44;;;;;;;5.65;1.02;;;23.20;48.40;;;;;;5043569;28;20071;-47
2022/09/19 08:35:10;;;;;;;3.97;1.20;;;23.20;48.30;;;;;;5044581;28;20017;-45
2022/09/19 08:37:36;;;;;;;2.13;1.02;;;23.20;48.30;;;;;;5033123;28;20422;-44
2022/09/19 08:40:18;;;;;;;6.10;0.98;;;23.20;48.70;;;;;;5030169;28;20025;-48
2022/09/19 08:43:04;;;;;;;2.97;0.70;;;23.20;48.50;;;;;;5034670;28;20052;-46
2022/09/19 08:46:08;;;;;;;3.67;1.27;;;23.20;48.40;;;;;;5031716;28;20046;-46
2022/09/19 08:48:55;;;;;;;2.63;0.68;;;23.20;48.40;;;;;;5037214;28;20031;-45
2022/09/19 08:51:29;;;;;;;3.08;0.70;;;23.20;48.50;;;;;;5051460;28;20070;-48
2022/09/19 08:54:11;;;;;;;2.92;0.82;;;23.20;48.60;;;;;;5035374;28;20052;-45
2022/09/19 08:56:38;;;;;;;2.70;0.90;;;23.20;48.40;;;;;;5042331;28;20035;-46
2022/09/19 08:59:10;;;;;;;4.30;0.90;;;23.20;48.40;;;;;;5043050;28;20056;-45
2022/09/19 09:01:38;;;;;;;2.70;1.15;;;23.20;48.80;;;;;;5032932;28;20187;-46
2022/09/19 09:04:22;;;;;;;2.38;0.93;;;23.20;48.80;;;;;;5015136;28;20030;-47
2022/09/19 09:07:12;;;;;;;3.78;1.08;;;23.20;48.10;;;;;;5034245;28;20047;-48
2022/09/19 09:09:58;;;;;;;6.05;1.38;;;23.20;48.30;;;;;;5047535;28;20095;-50
2022/09/19 09:12:46;;;;;;;4.03;0.98;;;23.20;48.10;;;;;;5037519;28;20497;-45
2022/09/19 09:15:24;;;;;;;3.15;0.77;;;23.20;48.00;;;;;;5024217;28;20037;-47
2022/09/19 09:18:02;;;;;;;8.35;1.45;;;23.20;48.00;;;;;;5033234;28;20022;-48
2022/09/19 09:20:49;;;;;;;3.03;0.90;;;23.20;48.10;;;;;;5045249;28;20021;-48
2022/09/19 09:23:28;;;;;;;3.53;1.00;;;23.20;48.10;;;;;;5044090;28;20028;-49
2022/09/19 09:26:02;;;;;;;2.90;0.88;;;23.20;48.10;;;;;;5035313;28;20030;-45
2022/09/19 09:28:40;;;;;;;4.35;0.98;;;23.20;48.10;;;;;;5032993;28;20026;-45
2022/09/19 09:31:25;;;;;;;4.78;1.00;;;23.20;48.80;;;;;;5029952;28;20072;-50
2022/09/19 09:34:03;;;;;;;3.00;1.00;;;23.20;48.20;;;;;;5030506;28;20036;-45
2022/09/19 09:36:42;;;;;;;5.25;0.90;;;23.20;48.10;;;;;;5031854;28;20041;-45
2022/09/19 09:39:23;;;;;;;3.85;0.80;;;23.20;48.10;;;;;;5029926;28;20052;-48
2022/09/19 09:41:58;;;;;;;3.10;1.38;;;23.20;48.10;;;;;;5033100;28;20026;-45
2022/09/19 09:44:59;;;;;;;2.58;0.63;;;23.20;48.10;;;;;;5044645;28;20129;-46
2022/09/19 09:47:52;;;;;;;2.67;1.00;;;23.20;48.30;;;;;;4969747;28;20039;-45
2022/09/19 09:50:36;;;;;;;2.95;1.00;;;23.20;48.10;;;;;;5015101;28;20037;-46
2022/09/19 09:53:35;;;;;;;3.25;0.70;;;23.20;48.50;;;;;;5030637;28;20025;-52
2022/09/19 09:56:15;;;;;;;3.47;0.98;;;23.20;47.80;;;;;;5047599;28;20079;-53
2022/09/19 10:03:33;;;;;;;2.03;0.75;;;23.20;47.90;;;;;;5040115;28;20075;-45
2022/09/19 10:05:05;;;;;;;3.20;1.25;;;23.20;48.30;;;;;;5030524;28;20036;-48
2022/09/19 10:07:42;;;;;;;2.95;0.80;;;23.20;48.20;;;;;;5046601;28;20482;-46
2022/09/19 10:10:19;;;;;;;2.35;0.68;;;23.20;48.00;;;;;;5021266;28;20052;-47
2022/09/19 10:12:58;;;;;;;3.15;0.85;;;23.20;47.80;;;;;;5050947;28;20037;-45
2022/09/19 10:15:25;;;;;;;3.45;0.80;;;23.20;47.90;;;;;;5050542;28;20021;-45
2022/09/19 10:18:06;;;;;;;1.52;0.77;;;23.20;47.80;;;;;;5050745;28;20040;-49
2022/09/19 10:20:38;;;;;;;1.13;0.60;;;23.20;47.50;;;;;;5051006;28;20032;-45
2022/09/19 10:23:10;;;;;;;2.42;0.90;;;23.20;47.80;;;;;;5042350;28;20037;-55
2022/09/19 10:25:35;;;;;;;3.03;0.98;;;23.20;48.00;;;;;;5050787;28;20051;-50
2022/09/19 10:28:29;;;;;;;1.65;0.70;;;23.20;47.90;;;;;;5050863;28;20060;-53
2022/09/19 10:30:58;;;;;;;2.50;0.98;;;23.20;47.80;;;;;;5051335;28;20029;-45
2022/09/19 10:33:41;;;;;;;2.63;0.80;;;23.20;47.80;;;;;;5049331;28;20588;-45
2022/09/19 10:36:22;;;;;;;1.42;0.57;;;23.20;48.00;;;;;;5034408;28;20048;-46
2022/09/19 10:38:58;;;;;;;4.55;0.90;;;23.20;48.20;;;;;;5050338;28;20025;-46
2022/09/19 10:41:30;;;;;;;3.03;0.60;;;23.20;48.40;;;;;;5050238;28;20025;-45
2022/09/19 10:43:59;;;;;;;2.15;0.80;;;23.20;47.80;;;;;;5050657;28;20537;-45
2022/09/19 10:46:31;;;;;;;3.83;0.77;;;23.10;47.50;;;;;;5050242;28;20021;-47
2022/09/19 10:48:58;;;;;;;3.42;0.80;;;23.10;47.30;;;;;;5051494;28;20040;-47
2022/09/19 10:51:35;;;;;;;5.15;0.80;;;23.10;47.50;;;;;;5053785;28;20107;-46
2022/09/19 10:54:11;;;;;;;4.10;0.70;;;23.10;47.60;;;;;;5054237;28;20363;-44
2022/09/19 10:56:39;;;;;;;4.93;0.70;;;23.10;47.30;;;;;;5045745;28;20029;-45
2022/09/19 10:59:12;;;;;;;1.88;0.82;;;23.10;47.60;;;;;;5053595;28;20028;-53
2022/09/19 11:01:39;;;;;;;6.45;1.25;;;23.10;47.90;;;;;;5054000;28;20401;-49
2022/09/19 11:04:26;;;;;;;2.50;0.80;;;23.10;47.70;;;;;;5053423;28;20040;-53
2022/09/19 11:06:56;;;;;;;2.97;0.90;;;23.10;47.40;;;;;;5053975;28;20113;-47
2022/09/19 11:09:27;;;;;;;5.28;1.17;;;23.10;48.40;;;;;;5053233;28;20052;-45
2022/09/19 11:12:03;;;;;;;5.83;0.80;;;23.10;48.40;;;;;;5053451;28;20028;-45
2022/09/19 11:14:40;;;;;;;2.08;0.77;;;23.10;48.00;;;;;;5053718;28;20033;-45
2022/09/19 11:17:31;;;;;;;1.58;0.50;;;23.10;48.10;;;;;;5053530;28;20064;-53
2022/09/19 11:20:16;;;;;;;2.53;0.80;;;23.20;48.10;;;;;;5045479;28;20029;-45
2022/09/19 11:23:05;;;;;;;2.55;0.95;;;23.10;48.10;;;;;;5053803;28;20260;-45
2022/09/19 11:25:46;;;;;;;3.75;0.95;;;23.10;48.00;;;;;;5053533;28;20160;-46
2022/09/19 11:28:30;;;;;;;1.05;0.50;;;23.10;47.90;;;;;;5037626;28;20025;-45
2022/09/19 11:31:05;;;;;;;3.15;0.80;;;23.10;47.90;;;;;;5044992;28;20037;-45
2022/09/19 11:33:55;;;;;;;4.45;1.02;;;23.10;47.80;;;;;;5052920;28;20116;-45
2022/09/19 11:36:49;;;;;;;2.97;0.93;;;23.10;47.80;;;;;;5052823;28;20093;-45
2022/09/19 11:39:47;;;;;;;2.45;0.70;;;23.10;48.10;;;;;;5052813;28;20378;-48
2022/09/19 11:42:20;;;;;;;3.30;0.70;;;23.10;48.10;;;;;;5037769;28;20373;-46
2022/09/19 11:44:54;;;;;;;7.90;1.58;;;23.10;48.00;;;;;;5053354;28;20055;-45
2022/09/19 11:47:26;;;;;;;1.60;0.50;;;23.20;48.10;;;;;;5051681;28;20028;-45
2022/09/19 11:50:11;;;;;;;3.03;0.70;;;23.10;47.90;;;;;;5054222;28;20032;-47
2022/09/19 11:53:14;;;;;;;3.72;0.90;;;23.20;48.00;;;;;;5053300;28;20108;-48
2022/09/19 11:55:58;;;;;;;4.20;0.77;;;23.20;48.10;;;;;;5049787;28;20100;-46
2022/09/19 11:58:34;;;;;;;2.92;0.60;;;23.20;48.50;;;;;;5038468;28;20478;-45
2022/09/19 12:01:26;;;;;;;2.53;0.68;;;23.20;48.20;;;;;;5052474;28;20021;-46
2022/09/19 12:04:25;;;;;;;2.70;0.82;;;23.20;48.20;;;;;;5044130;28;20072;-46
2022/09/19 12:06:57;;;;;;;2.90;0.80;;;23.20;48.60;;;;;;5052847;28;20027;-46
2022/09/19 12:09:44;;;;;;;4.10;1.13;;;23.20;48.30;;;;;;5051563;28;20486;-46
2022/09/19 12:12:21;;;;;;;3.80;0.80;;;23.10;48.10;;;;;;5051562;28;20446;-52
2022/09/19 12:14:52;;;;;;;1.50;0.70;;;23.20;48.30;;;;;;5052861;28;20433;-45
2022/09/19 12:17:42;;;;;;;2.22;0.73;;;23.20;48.10;;;;;;5052270;28;20131;-46
2022/09/19 12:20:25;;;;;;;1.27;0.70;;;23.20;48.40;;;;;;5037142;28;20107;-52
2022/09/19 12:22:57;;;;;;;1.67;0.65;;;23.20;48.30;;;;;;5052819;28;20068;-46
2022/09/19 12:25:31;;;;;;;2.40;0.50;;;23.20;48.40;;;;;;5051680;28;20423;-47
2022/09/19 12:28:10;;;;;;;2.38;0.73;;;23.20;48.40;;;;;;5052324;28;20029;-45
2022/09/19 12:30:41;;;;;;;1.30;0.50;;;23.20;48.50;;;;;;5047276;28;20029;-47
2022/09/19 12:33:43;;;;;;;3.00;0.60;;;23.20;48.80;;;;;;5052284;28;20500;-53
2022/09/19 12:36:30;;;;;;;3.10;0.90;;;23.20;48.50;;;;;;5036017;28;20025;-55
2022/09/19 12:39:22;;;;;;;4.78;0.88;;;23.20;48.70;;;;;;5051830;28;20268;-45
2022/09/19 12:41:48;;;;;;;2.17;0.65;;;23.20;48.60;;;;;;5052354;28;20033;-46
2022/09/19 12:44:34;;;;;;;1.30;0.55;;;23.20;48.60;;;;;;5051614;28;20025;-45
2022/09/19 12:47:19;;;;;;;3.17;0.57;;;23.20;48.60;;;;;;5052416;28;20079;-45
2022/09/19 12:50:22;;;;;;;4.50;1.05;;;23.20;48.60;;;;;;5052392;28;20021;-45
2022/09/19 12:53:20;;;;;;;2.00;0.65;;;23.20;48.50;;;;;;5052287;28;20577;-45
2022/09/19 12:56:05;;;;;;;2.92;0.80;;;23.20;48.60;;;;;;5051368;28;20078;-45
2022/09/19 12:58:52;;;;;;;1.50;0.50;;;23.20;48.50;;;;;;5051165;28;20013;-45
2022/09/19 13:01:42;;;;;;;1.17;0.47;;;23.20;48.40;;;;;;5047908;28;20078;-45
2022/09/19 13:04:34;;;;;;;0.93;0.63;;;23.20;48.50;;;;;;5036060;28;20025;-53
2022/09/19 13:07:09;;;;;;;1.77;0.57;;;23.20;48.70;;;;;;5051357;28;20036;-44
2022/09/19 13:09:45;;;;;;;2.10;0.95;;;23.20;48.80;;;;;;5051062;28;20033;-45
2022/09/19 13:12:36;;;;;;;1.50;0.50;;;23.20;48.70;;;;;;5042062;28;20035;-53
2022/09/19 13:15:34;;;;;;;1.17;0.50;;;23.20;48.70;;;;;;5051455;28;20045;-48
2022/09/19 13:23:35;;;;;;;1.58;0.50;;;23.20;48.70;;;;;;5051501;28;20519;-46
2022/09/19 13:26:25;;;;;;;2.03;0.90;;;23.20;48.50;;;;;;5051658;28;20063;-45
2022/09/19 13:28:53;;;;;;;1.85;0.63;;;23.20;48.50;;;;;;5046538;28;20034;-45
2022/09/19 13:31:39;;;;;;;3.47;1.50;;;23.20;48.40;;;;;;5051315;28;20444;-45
2022/09/19 13:34:43;;;;;;;2.88;0.70;;;23.20;48.50;;;;;;5051316;28;20064;-45
2022/09/19 13:37:32;;;;;;;2.53;0.70;;;23.20;48.70;;;;;;5050665;28;20029;-53